Terminal Aerodrome Forecast
Issued by NWS

Home | Current Version | Previous Version | Graphics & Text | Print | Product List | Glossary On
Versions: 1 2 3 4 5 6 7 8 9 10 11 12 13 14 15 16 17
000
FTUS43 KMPX 162300
TAFRNH
TAF
KRNH 162332Z 1700/1724 06014G20KT 1SM -SN BKN008 OVC012
      TEMPO 1701/1703 1/2SM SN FG BKN006 OVC010
     FM170300 06012G18KT 3SM -SN BR BKN012 OVC025
      TEMPO 1703/1706 1SM -SN BR OVC012
     FM170600 02012KT 4SM -SN OVC012
     FM170800 35011KT P6SM OVC015
     FM172000 32007KT P6SM OVC050=

USA.gov is the U.S. government's official web portal to all federal, state and local government web resources and services.